Arisaig, United Kingdom
Current Conditions -  °F | °C
As of 9:50 AM on Sunday 25 Jan 2015 (Local Time) from EGPU Reporting Station
Overcast Overcast  
Wind Chill: 40°   Ceiling: 400
Heat Index: 48°   Visibility: 4mi
Dew Point: 48°   Wind: 28mph
Humidity: 100%   Direction: 210°SSW
Pressure: 30"   Gusts: 39mph
Location:  56.91°N, 5.84°W
Report Text: EGPU 250950Z AUTO 21024G34KT 7000 OVC004/// 09/09 Q1016
Loading
Personal Weather Stations






























Interactive Weather Map New forecast layout! Learn more

10-Day Weather Forecast

Advertisements
Track Severe Weather on mobile